^^
Saratoga-Weather Station Historical Data
Daily Summary for June 12, 2020 Units:  English    Metric   Both
Daily Weekly Monthly Yearly Custom
  High: Low: Average:
Temperature: 80.8 °F 52.2 °F 65.8 °F
Dew Point: 59.4 °F 50.4 °F 54.1 °F
Humidity: 95% 42% 69%
Wind Speed: 11mph 0mph 1.7mph
Wind Gust: 12mph - -
Wind- - WSW
Pressure: 30.2 in 30 in -
Precipitation: 0 in    
Historical Graphs
 
 
Tabular Data for June 12, 2020
Time Temperature Dew Point Pressure Wind Wind Speed Wind Gust Humidity Rainfall Rate (Hourly) solar
00:00 59.5 °F 53.1 °F 30 in Calm     79% 0 in 0 W/m2
00:05 59.4 °F 53.2 °F 30 in Calm     80% 0 in 0 W/m2
00:10 59.4 °F 53.2 °F 30 in Calm     80% 0 in 0 W/m2
00:15 59.2 °F 53.1 °F 30 in Calm     80% 0 in 0 W/m2
00:20 59 °F 52.9 °F 30 in Calm     80% 0 in 0 W/m2
00:25 58.6 °F 52.9 °F 30 in Calm     81% 0 in 0 W/m2
00:30 58.6 °F 52.9 °F 30 in Calm     81% 0 in 0 W/m2
00:35 58.5 °F 52.7 °F 30 in Calm     81% 0 in 0 W/m2
00:40 58.3 °F 52.5 °F 30 in Calm     81% 0 in 0 W/m2
00:45 58.3 °F 52.9 °F 30 in Calm     82% 0 in 0 W/m2
00:50 58.3 °F 52.9 °F 30 in Calm     82% 0 in 0 W/m2
00:55 58.1 °F 52.7 °F 30 in Calm     82% 0 in 0 W/m2
01:00 57.9 °F 52.5 °F 30 in Calm     82% 0 in 0 W/m2
01:05 57.7 °F 52.7 °F 30 in Calm     83% 0 in 0 W/m2
01:10 57.6 °F 52.5 °F 30 in Calm     83% 0 in 0 W/m2
01:15 57.6 °F 52.7 °F 30 in Calm     84% 0 in 0 W/m2
01:20 57.4 °F 52.5 °F 30 in Calm     84% 0 in 0 W/m2
01:25 57.2 °F 52.3 °F 30 in Calm     84% 0 in 0 W/m2
01:30 57 °F 52.5 °F 30 in Calm     85% 0 in 0 W/m2
01:35 57 °F 52.5 °F 30 in Calm     85% 0 in 0 W/m2
01:40 56.8 °F 52.3 °F 30 in Calm     85% 0 in 0 W/m2
01:45 56.8 °F 52.3 °F 30 in Calm     85% 0 in 0 W/m2
01:50 56.8 °F 52.3 °F 30 in Calm     85% 0 in 0 W/m2
01:55 56.7 °F 52.5 °F 30 in Calm     86% 0 in 0 W/m2
02:00 56.5 °F 52.3 °F 30 in Calm     86% 0 in 0 W/m2
02:05 56.5 °F 52.3 °F 30 in Calm     86% 0 in 0 W/m2
02:10 56.1 °F 52 °F 30 in Calm     86% 0 in 0 W/m2
02:16 56.1 °F 52 °F 30 in Calm     86% 0 in 0 W/m2
02:21 55.9 °F 52.2 °F 30 in Calm     87% 0 in 0 W/m2
02:26 55.9 °F 52.2 °F 30 in Calm     87% 0 in 0 W/m2
02:31 55.8 °F 52 °F 30 in Calm     87% 0 in 0 W/m2
02:36 55.8 °F 52 °F 30 in Calm     87% 0 in 0 W/m2
02:41 55.8 °F 52 °F 30 in Calm     87% 0 in 0 W/m2
02:46 55.6 °F 51.8 °F 30 in Calm     87% 0 in 0 W/m2
02:51 55.4 °F 52 °F 30 in Calm     88% 0 in 0 W/m2
02:56 55.2 °F 51.8 °F 30 in Calm     88% 0 in 0 W/m2
03:01 55.2 °F 51.8 °F 30 in Calm     88% 0 in 0 W/m2
03:06 55 °F 51.6 °F 30 in Calm     88% 0 in 0 W/m2
03:11 55 °F 51.8 °F 30 in Calm     89% 0 in 0 W/m2
03:17 54.9 °F 51.6 °F 30 in Calm     89% 0 in 0 W/m2
03:22 54.9 °F 51.6 °F 30 in Calm     89% 0 in 0 W/m2
03:27 54.7 °F 51.4 °F 30 in Calm     89% 0 in 0 W/m2
03:32 54.7 °F 51.8 °F 30 in Calm     90% 0 in 0 W/m2
03:37 54.7 °F 51.8 °F 30 in Calm     90% 0 in 0 W/m2
03:42 54.7 °F 51.8 °F 30 in Calm     90% 0 in 0 W/m2
03:47 54.7 °F 51.8 °F 30 in Calm     90% 0 in 0 W/m2
03:52 54.7 °F 51.8 °F 30 in Calm     90% 0 in 0 W/m2
03:57 54.7 °F 51.8 °F 30 in Calm     90% 0 in 0 W/m2
04:02 54.7 °F 51.8 °F 30 in Calm     90% 0 in 0 W/m2
04:07 54.3 °F 51.4 °F 30 in Calm     90% 0 in 0 W/m2
04:12 54.3 °F 51.8 °F 30 in Calm     91% 0 in 0 W/m2
04:17 54.3 °F 51.8 °F 30 in Calm     91% 0 in 0 W/m2
04:22 54.3 °F 51.8 °F 30 in Calm     91% 0 in 0 W/m2
04:27 54.3 °F 51.8 °F 30 in Calm     91% 0 in 0 W/m2
04:32 54.1 °F 51.6 °F 30 in Calm     91% 0 in 0 W/m2
04:37 54.1 °F 51.6 °F 30 in Calm     91% 0 in 0 W/m2
04:42 54.1 °F 51.6 °F 30 in Calm     91% 0 in 0 W/m2
04:47 54.1 °F 51.6 °F 30 in Calm     91% 0 in 0 W/m2
04:52 54.1 °F 51.6 °F 30 in Calm     91% 0 in 0 W/m2
04:58 54.1 °F 51.6 °F 30 in Calm     91% 0 in 0 W/m2
05:03 54 °F 51.4 °F 30 in Calm     91% 0 in 0 W/m2
05:08 54 °F 51.4 °F 30 in Calm     91% 0 in 0 W/m2
05:13 53.8 °F 51.3 °F 30 in Calm     91% 0 in 0 W/m2
05:18 53.8 °F 51.3 °F 30 in Calm     91% 0 in 0 W/m2
05:23 53.8 °F 51.4 °F 30 in Calm     92% 0 in 0 W/m2
05:28 53.8 °F 51.4 °F 30 in Calm     92% 0 in 0 W/m2
05:33 53.8 °F 51.4 °F 30 in Calm     92% 0 in 0 W/m2
05:38 53.8 °F 51.4 °F 30 in Calm     92% 0 in 0 W/m2
05:43 53.4 °F 51.1 °F 30 in Calm     92% 0 in 0 W/m2
05:48 53.4 °F 51.1 °F 30 in Calm     92% 0 in 0 W/m2
05:53 53.2 °F 50.9 °F 30 in Calm     92% 0 in 0 W/m2
05:58 53.2 °F 50.9 °F 30 in Calm     92% 0 in 0 W/m2
06:03 53.1 °F 50.7 °F 30 in Calm     92% 0 in 0 W/m2
06:08 52.9 °F 50.5 °F 30 in Calm     92% 0 in 0 W/m2
06:13 52.7 °F 50.4 °F 30 in Calm     92% 0 in 0 W/m2
06:18 52.9 °F 50.9 °F 30 in Calm     93% 0 in 0 W/m2
06:23 52.7 °F 50.7 °F 30 in Calm     93% 0 in 0 W/m2
06:29 52.5 °F 50.5 °F 30 in Calm     93% 0 in 0 W/m2
06:34 52.5 °F 50.5 °F 30 in Calm     93% 0 in 0 W/m2
06:39 52.3 °F 50.4 °F 30 in Calm     93% 0 in 0 W/m2
06:44 52.3 °F 50.4 °F 30 in Calm     93% 0 in 0 W/m2
06:49 52.3 °F 50.4 °F 30 in Calm     93% 0 in 0 W/m2
06:54 52.3 °F 50.4 °F 30 in Calm     93% 0 in 0 W/m2
06:59 52.3 °F 50.7 °F 30 in Calm     94% 0 in 0 W/m2
07:04 52.5 °F 50.9 °F 30 in Calm     94% 0 in 0 W/m2
07:09 52.5 °F 50.9 °F 30 in Calm     94% 0 in 0 W/m2
07:14 52.5 °F 50.9 °F 30 in Calm     94% 0 in 5 W/m2
07:19 52.3 °F 50.7 °F 30 in Calm     94% 0 in 7 W/m2
07:24 52.3 °F 50.7 °F 30 in Calm     94% 0 in 9 W/m2
07:29 52.3 °F 50.7 °F 30 in Calm     94% 0 in 12 W/m2
07:34 52.2 °F 50.5 °F 30 in Calm     94% 0 in 16 W/m2
07:39 52.2 °F 50.5 °F 30 in Calm     94% 0 in 18 W/m2
07:44 52.2 °F 50.5 °F 30 in Calm     94% 0 in 21 W/m2
07:49 52.3 °F 50.7 °F 30 in Calm     94% 0 in 25 W/m2
07:54 52.3 °F 50.9 °F 30 in Calm     95% 0 in 26 W/m2
07:59 52.5 °F 51.1 °F 30 in Calm     95% 0 in 30 W/m2
08:04 52.5 °F 50.9 °F 30 in Calm     94% 0 in 33 W/m2
08:09 52.5 °F 50.9 °F 30 in Calm     94% 0 in 37 W/m2
08:14 52.7 °F 51.3 °F 30 in Calm     95% 0 in 40 W/m2
08:19 52.9 °F 51.4 °F 30 in Calm     95% 0 in 42 W/m2
08:24 53.1 °F 51.6 °F 30 in Calm     95% 0 in 47 W/m2
08:29 53.2 °F 51.8 °F 30 in Calm     95% 0 in 83 W/m2
08:34 53.4 °F 52 °F 30.1 in Calm     95% 0 in 91 W/m2
08:39 53.8 °F 52.3 °F 30.1 in Calm     95% 0 in 104 W/m2
08:44 54 °F 52.5 °F 30.1 in Calm     95% 0 in 116 W/m2
08:50 54.3 °F 52.7 °F 30.1 in Calm     94% 0 in 125 W/m2
08:55 54.9 °F 53.2 °F 30.1 in Calm     94% 0 in 62 W/m2
09:00 55.6 °F 53.6 °F 30.1 in Calm     93% 0 in 83 W/m2
09:05 55.9 °F 53.6 °F 30.1 in Calm     92% 0 in 160 W/m2
09:10 56.7 °F 54.1 °F 30.1 in Calm     91% 0 in 171 W/m2
09:15 57 °F 54.1 °F 30.1 in Calm     90% 0 in 178 W/m2
09:20 57.6 °F 54.3 °F 30.1 in Calm     89% 0 in 102 W/m2
09:25 58.1 °F 54.5 °F 30.1 in Calm     88% 0 in 77 W/m2
09:30 58.6 °F 54.9 °F 30.1 in Calm     87% 0 in 79 W/m2
09:35 59.2 °F 55 °F 30.1 in Calm     86% 0 in 83 W/m2
09:40 59.9 °F 55 °F 30.1 in Calm   2 mph 84% 0 in 84 W/m2
09:45 60.6 °F 55.4 °F 30.1 in ENE 0.9 mph 1 mph 83% 0 in 86 W/m2
09:50 61.2 °F 55.2 °F 30.1 in ENE 0.9 mph 2 mph 81% 0 in 88 W/m2
09:55 61.3 °F 55 °F 30.1 in East 2 mph 2 mph 80% 0 in 91 W/m2
10:00 61.5 °F 55.2 °F 30.1 in Calm     80% 0 in 93 W/m2
10:05 62.1 °F 55.8 °F 30.1 in ENE 2 mph 2 mph 80% 0 in 95 W/m2
10:10 62.4 °F 55.8 °F 30.1 in NE 0.9 mph 2 mph 79% 0 in 98 W/m2
10:15 63 °F 55.9 °F 30.1 in Calm   1 mph 78% 0 in 100 W/m2
10:20 63.5 °F 56.5 °F 30.1 in ENE 2 mph 3 mph 78% 0 in 102 W/m2
10:25 63.7 °F 55.9 °F 30.1 in Calm   1 mph 76% 0 in 104 W/m2
10:30 64 °F 56.3 °F 30.1 in Calm   1 mph 76% 0 in 105 W/m2
10:35 64.6 °F 56.5 °F 30.1 in Calm   2 mph 75% 0 in 105 W/m2
10:40 65.1 °F 57 °F 30.1 in Calm   2 mph 75% 0 in 107 W/m2
10:45 65.7 °F 57.2 °F 30.1 in ENE 2 mph 2 mph 74% 0 in 109 W/m2
10:50 65.8 °F 57.4 °F 30.1 in East 0.9 mph 2 mph 74% 0 in 111 W/m2
10:55 66.4 °F 57.4 °F 30.1 in NE 2 mph 4 mph 73% 0 in 111 W/m2
11:00 66.7 °F 57 °F 30.1 in NE 2 mph 4 mph 71% 0 in 113 W/m2
11:05 66.9 °F 57.6 °F 30.1 in Calm   2 mph 72% 0 in 118 W/m2
11:10 67.5 °F 57.7 °F 30.1 in NNE 0.9 mph 2 mph 71% 0 in 123 W/m2
11:15 67.6 °F 57.6 °F 30.1 in ENE 2 mph 2 mph 70% 0 in 142 W/m2
11:20 68.2 °F 57.6 °F 30.1 in ENE 0.9 mph 3 mph 69% 0 in 213 W/m2
11:25 68.7 °F 58.5 °F 30.1 in ENE 0.9 mph 2 mph 70% 0 in 190 W/m2
11:30 69.4 °F 58.8 °F 30.1 in ENE 0.9 mph 4 mph 69% 0 in 176 W/m2
11:35 70.2 °F 59.2 °F 30.1 in East 0.9 mph 2 mph 68% 0 in 153 W/m2
11:40 70.9 °F 59 °F 30.1 in SE 2 mph 3 mph 66% 0 in 234 W/m2
11:45 71.4 °F 58.6 °F 30.1 in East 0.9 mph 2 mph 64% 0 in 492 W/m2
11:50 72.1 °F 59.4 °F 30.1 in Calm   1 mph 64% 0 in 508 W/m2
11:55 72.9 °F 59 °F 30.1 in Calm   2 mph 62% 0 in 517 W/m2
12:00 73.4 °F 58.6 °F 30.1 in Calm     60% 0 in 529 W/m2
12:05 73.9 °F 57.2 °F 30.1 in NNW 2 mph 3 mph 56% 0 in 545 W/m2
12:10 74.7 °F 56.5 °F 30.1 in North 0.9 mph 3 mph 53% 0 in 559 W/m2
12:15 75 °F 56.1 °F 30.1 in Calm   4 mph 52% 0 in 570 W/m2
12:20 75.4 °F 55.9 °F 30.1 in NE 2 mph 3 mph 51% 0 in 575 W/m2
12:25 76.3 °F 56.8 °F 30.1 in NW 2.9 mph 4 mph 51% 0 in 580 W/m2
12:30 76.8 °F 56.3 °F 30.1 in Calm   4 mph 49% 0 in 585 W/m2
12:35 77.2 °F 55.9 °F 30.1 in Calm   5 mph 48% 0 in 592 W/m2
12:40 77.5 °F 55.8 °F 30.1 in WNW 4.9 mph 6 mph 47% 0 in 601 W/m2
12:45 77.5 °F 55 °F 30.1 in NNE 2 mph 7 mph 46% 0 in 608 W/m2
12:51 77.7 °F 55.2 °F 30.1 in NW 0.9 mph 2 mph 46% 0 in 612 W/m2
12:56 78.1 °F 55.6 °F 30.1 in WNW 2 mph 7 mph 46% 0 in 619 W/m2
13:01 78.1 °F 55 °F 30.1 in West 2 mph 4 mph 45% 0 in 621 W/m2
13:06 78.3 °F 54.5 °F 30.1 in Calm   6 mph 44% 0 in 621 W/m2
13:11 78.4 °F 54.7 °F 30.1 in West 2.9 mph 7 mph 44% 0 in 626 W/m2
13:16 78.4 °F 55.4 °F 30.1 in NNW 0.9 mph 5 mph 45% 0 in 635 W/m2
13:21 78.6 °F 54.9 °F 30.1 in WSW 2 mph 2 mph 44% 0 in 638 W/m2
13:26 79 °F 54.5 °F 30.1 in WSW 2.9 mph 9 mph 43% 0 in 642 W/m2
13:31 79 °F 54.5 °F 30.1 in NW 2.9 mph 9 mph 43% 0 in 647 W/m2
13:36 79.2 °F 55.4 °F 30.1 in West 4 mph 9 mph 44% 0 in 645 W/m2
13:41 79.3 °F 54.9 °F 30.1 in ESE 0.9 mph 4 mph 43% 0 in 649 W/m2
13:46 79.5 °F 55 °F 30.1 in NW 6 mph 8 mph 43% 0 in 649 W/m2
13:51 79.5 °F 54.5 °F 30.1 in WNW 2 mph 8 mph 42% 0 in 654 W/m2
13:56 79.5 °F 55 °F 30.1 in North 2.9 mph 8 mph 43% 0 in 647 W/m2
14:01 79.5 °F 54.5 °F 30.1 in WNW 2.9 mph 10 mph 42% 0 in 645 W/m2
14:06 79.3 °F 54.9 °F 30.1 in SW 2.9 mph 8 mph 43% 0 in 636 W/m2
14:11 79.5 °F 55 °F 30.1 in West 2.9 mph 4 mph 43% 0 in 633 W/m2
14:16 79.5 °F 55 °F 30.1 in WNW 2.9 mph 6 mph 43% 0 in 631 W/m2
14:21 79.9 °F 55.4 °F 30.1 in WSW 2.9 mph 7 mph 43% 0 in 628 W/m2
14:26 79.9 °F 55.9 °F 30.1 in West 6 mph 6 mph 44% 0 in 617 W/m2
14:31 80.2 °F 56.3 °F 30.1 in SW 2 mph 5 mph 44% 0 in 619 W/m2
14:36 80.2 °F 55.8 °F 30.1 in West 0.9 mph 4 mph 43% 0 in 613 W/m2
14:41 80.1 °F 55.6 °F 30.1 in Calm   7 mph 43% 0 in 612 W/m2
14:46 80.2 °F 55.8 °F 30.1 in WSW 4 mph 7 mph 43% 0 in 610 W/m2
14:51 80.2 °F 55.8 °F 30.1 in West 2.9 mph 5 mph 43% 0 in 608 W/m2
14:56 80.2 °F 55 °F 30.1 in NW 0.9 mph 7 mph 42% 0 in 605 W/m2
15:01 80.2 °F 55.8 °F 30.1 in NW 4.9 mph 5 mph 43% 0 in 599 W/m2
15:06 80.4 °F 55.2 °F 30.1 in South 2 mph 11 mph 42% 0 in 592 W/m2
15:11 80.8 °F 55.6 °F 30.1 in WSW 2 mph 2 mph 42% 0 in 585 W/m2
15:16 80.6 °F 55.4 °F 30.1 in West 0.9 mph 9 mph 42% 0 in 577 W/m2
15:21 80.8 °F 56.1 °F 30.1 in West 4 mph 8 mph 43% 0 in 570 W/m2
15:26 80.8 °F 56.1 °F 30.1 in WSW 2.9 mph 9 mph 43% 0 in 564 W/m2
15:31 80.8 °F 55.6 °F 30.1 in West 2.9 mph 4 mph 42% 0 in 561 W/m2
15:36 80.8 °F 55.6 °F 30.1 in SW 2 mph 5 mph 42% 0 in 552 W/m2
15:41 80.8 °F 55.6 °F 30.1 in NW 11 mph 11 mph 42% 0 in 548 W/m2
15:46 80.4 °F 55.9 °F 30.1 in WNW 4 mph 7 mph 43% 0 in 543 W/m2
15:51 80.2 °F 56.3 °F 30.1 in SW 6.9 mph 9 mph 44% 0 in 540 W/m2
15:56 80.2 °F 56.3 °F 30.1 in WNW 2 mph 4 mph 44% 0 in 531 W/m2
16:01 80.4 °F 57.2 °F 30.1 in SW 4 mph 4 mph 45% 0 in 522 W/m2
16:06 80.4 °F 56.5 °F 30.1 in West 2.9 mph 8 mph 44% 0 in 504 W/m2
16:11 80.8 °F 57.4 °F 30.1 in West 6 mph 6 mph 45% 0 in 492 W/m2
16:16 80.8 °F 56.8 °F 30.1 in WNW 8.1 mph 11 mph 44% 0 in 487 W/m2
16:21 80.8 °F 56.8 °F 30.1 in West 8.1 mph 11 mph 44% 0 in 478 W/m2
16:26 80.4 °F 57.2 °F 30.1 in WNW 4.9 mph 9 mph 45% 0 in 469 W/m2
16:31 80.2 °F 57 °F 30.1 in WNW 2.9 mph 11 mph 45% 0 in 455 W/m2
16:36 80.2 °F 57 °F 30.1 in WSW 4 mph 6 mph 45% 0 in 441 W/m2
16:41 80.4 °F 57.2 °F 30.1 in West 6 mph 11 mph 45% 0 in 432 W/m2
16:46 80.4 °F 57.7 °F 30.1 in West 2.9 mph 6 mph 46% 0 in 418 W/m2
16:51 80.4 °F 57.2 °F 30.1 in NNW 2.9 mph 5 mph 45% 0 in 410 W/m2
16:56 80.4 °F 57.7 °F 30.1 in West 4 mph 5 mph 46% 0 in 390 W/m2
17:01 80.4 °F 57.7 °F 30.1 in West 2.9 mph 5 mph 46% 0 in 385 W/m2
17:06 80.4 °F 57.7 °F 30.1 in West 2 mph 3 mph 46% 0 in 376 W/m2
17:11 80.4 °F 57.2 °F 30.1 in West 6 mph 7 mph 45% 0 in 355 W/m2
17:16 80.2 °F 58.1 °F 30.1 in West 6.9 mph 9 mph 47% 0 in 353 W/m2
17:21 80.1 °F 57.4 °F 30.1 in WNW 4 mph 9 mph 46% 0 in 346 W/m2
17:26 80.1 °F 57.4 °F 30.1 in WNW 6 mph 9 mph 46% 0 in 329 W/m2
17:31 80.1 °F 58.1 °F 30.1 in West 2.9 mph 5 mph 47% 0 in 323 W/m2
17:36 79.9 °F 57.9 °F 30.1 in West 6 mph 8 mph 47% 0 in 315 W/m2
17:42 79.5 °F 57.6 °F 30.1 in NNW 10.1 mph 10 mph 47% 0 in 308 W/m2
17:47 79.5 °F 58.1 °F 30.1 in West 4 mph 8 mph 48% 0 in 292 W/m2
17:52 79.3 °F 57.9 °F 30.1 in West 2 mph 4 mph 48% 0 in 281 W/m2
17:57 79.3 °F 57.4 °F 30.1 in WNW 6.9 mph 9 mph 47% 0 in 264 W/m2
18:02 79.2 °F 57.7 °F 30.1 in West 4 mph 6 mph 48% 0 in 250 W/m2
18:07 79.2 °F 58.3 °F 30.1 in WSW 4 mph 7 mph 49% 0 in 243 W/m2
18:12 79 °F 57.6 °F 30.1 in West 2.9 mph 6 mph 48% 0 in 237 W/m2
18:17 78.8 °F 58.1 °F 30.1 in NW 2.9 mph 7 mph 49% 0 in 227 W/m2
18:22 78.4 °F 58.3 °F 30.1 in WNW 8.1 mph 9 mph 50% 0 in 218 W/m2
18:27 78.3 °F 58.1 °F 30.1 in WSW 2 mph 4 mph 50% 0 in 209 W/m2
18:32 78.1 °F 57.9 °F 30.1 in West 2 mph 9 mph 50% 0 in 195 W/m2
18:37 77.9 °F 58.3 °F 30.1 in WNW 2.9 mph 5 mph 51% 0 in 169 W/m2
18:42 77.7 °F 58.1 °F 30.1 in WNW 4.9 mph 8 mph 51% 0 in 160 W/m2
18:47 77.5 °F 57.9 °F 30.1 in WSW 6.9 mph 10 mph 51% 0 in 141 W/m2
18:52 77.2 °F 57.7 °F 30.1 in WSW 4 mph 7 mph 51% 0 in 123 W/m2
18:57 76.6 °F 57.7 °F 30.1 in West 2.9 mph 10 mph 52% 0 in 109 W/m2
19:02 76.3 °F 57.4 °F 30.1 in West 2.9 mph 10 mph 52% 0 in 97 W/m2
19:07 75.7 °F 57.4 °F 30.1 in West 2.9 mph 7 mph 53% 0 in 33 W/m2
19:12 75.4 °F 57 °F 30.1 in WNW 2.9 mph 4 mph 53% 0 in 28 W/m2
19:17 74.8 °F 57 °F 30.1 in West 2 mph 6 mph 54% 0 in 26 W/m2
19:22 74.5 °F 56.7 °F 30.1 in WNW 2 mph 3 mph 54% 0 in 23 W/m2
19:27 73.9 °F 56.8 °F 30.1 in West 2 mph 2 mph 55% 0 in 21 W/m2
19:33 73.6 °F 56.8 °F 30.1 in West 2 mph 3 mph 56% 0 in 18 W/m2
19:38 73 °F 56.5 °F 30.1 in WSW 2.9 mph 4 mph 56% 0 in 14 W/m2
19:43 72.5 °F 56.5 °F 30.1 in WSW 2.9 mph 5 mph 57% 0 in 11 W/m2
19:48 72.3 °F 56.3 °F 30.1 in West 2 mph 3 mph 57% 0 in 7 W/m2
19:53 72 °F 56.3 °F 30.1 in WSW 2 mph 4 mph 58% 0 in 0 W/m2
19:58 71.6 °F 56.1 °F 30.1 in West 2.9 mph 4 mph 58% 0 in 0 W/m2
20:03 71.2 °F 55.8 °F 30.1 in West 2 mph 4 mph 58% 0 in 0 W/m2
20:08 71.2 °F 56.1 °F 30.1 in West 2 mph 3 mph 59% 0 in 0 W/m2
20:13 70.9 °F 55.8 °F 30.1 in West 6 mph 6 mph 59% 0 in 0 W/m2
20:18 70.5 °F 55.6 °F 30.1 in West 2.9 mph 5 mph 59% 0 in 0 W/m2
20:23 70.3 °F 55.8 °F 30.1 in WNW 6 mph 6 mph 60% 0 in 0 W/m2
20:28 70.2 °F 55.6 °F 30.1 in West 2.9 mph 4 mph 60% 0 in 0 W/m2
20:33 70 °F 55.4 °F 30.1 in WSW 4 mph 4 mph 60% 0 in 0 W/m2
20:38 69.6 °F 55.6 °F 30.1 in SW 2.9 mph 4 mph 61% 0 in 0 W/m2
20:43 69.4 °F 55.4 °F 30.1 in WNW 2.9 mph 6 mph 61% 0 in 0 W/m2
20:48 69.3 °F 55.2 °F 30.1 in West 6.9 mph 8 mph 61% 0 in 0 W/m2
20:53 69.1 °F 55 °F 30.1 in West 6 mph 7 mph 61% 0 in 0 W/m2
20:58 68.9 °F 54.9 °F 30.1 in WNW 4 mph 6 mph 61% 0 in 0 W/m2
21:03 68.7 °F 54.7 °F 30.1 in West 2 mph 9 mph 61% 0 in 0 W/m2
21:08 68.5 °F 54.5 °F 30.1 in WSW 2.9 mph 6 mph 61% 0 in 0 W/m2
21:13 68.4 °F 54.3 °F 30.1 in WNW 2 mph 5 mph 61% 0 in 0 W/m2
21:18 68.2 °F 53.8 °F 30.1 in West 0.9 mph 12 mph 60% 0 in 0 W/m2
21:23 67.8 °F 53.4 °F 30.2 in West 4 mph 6 mph 60% 0 in 0 W/m2
21:28 67.6 °F 53.2 °F 30.2 in West 4 mph 7 mph 60% 0 in 0 W/m2
21:33 67.5 °F 53.1 °F 30.2 in West 4 mph 4 mph 60% 0 in 0 W/m2
21:38 67.1 °F 52.3 °F 30.2 in West 2.9 mph 5 mph 59% 0 in 0 W/m2
21:43 66.9 °F 52.2 °F 30.2 in WSW 4.9 mph 7 mph 59% 0 in 0 W/m2
21:48 66.9 °F 52.2 °F 30.2 in WSW 2.9 mph 6 mph 59% 0 in 0 W/m2
21:53 66.9 °F 52.2 °F 30.2 in West 6 mph 9 mph 59% 0 in 0 W/m2
21:58 66.7 °F 52 °F 30.2 in NW 0.9 mph 7 mph 59% 0 in 0 W/m2
22:03 66.7 °F 52 °F 30.2 in WNW 4.9 mph 7 mph 59% 0 in 0 W/m2
22:08 66.7 °F 52 °F 30.2 in West 4 mph 4 mph 59% 0 in 0 W/m2
22:13 66.4 °F 51.6 °F 30.2 in West 2.9 mph 6 mph 59% 0 in 0 W/m2
22:18 66 °F 51.3 °F 30.2 in WSW 2.9 mph 9 mph 59% 0 in 0 W/m2
22:23 65.8 °F 51.6 °F 30.2 in West 2 mph 7 mph 60% 0 in 0 W/m2
22:28 65.7 °F 51.4 °F 30.2 in WSW 2.9 mph 5 mph 60% 0 in 0 W/m2
22:33 65.5 °F 51.3 °F 30.2 in WSW 2 mph 5 mph 60% 0 in 0 W/m2
22:38 65.5 °F 51.6 °F 30.2 in WNW 2 mph 3 mph 61% 0 in 0 W/m2
22:43 65.1 °F 51.3 °F 30.2 in WNW 0.9 mph 6 mph 61% 0 in 0 W/m2
22:48 64.9 °F 51.1 °F 30.2 in WSW 4.9 mph 6 mph 61% 0 in 0 W/m2
22:54 64.8 °F 51.4 °F 30.2 in WSW 6 mph 6 mph 62% 0 in 0 W/m2
22:59 64.8 °F 51.4 °F 30.2 in WNW 2 mph 4 mph 62% 0 in 0 W/m2
23:04 64.8 °F 51.4 °F 30.2 in WNW 0.9 mph 3 mph 62% 0 in 0 W/m2
23:09 64.8 °F 51.4 °F 30.2 in WNW 0.9 mph 3 mph 62% 0 in 0 W/m2
23:14 64.6 °F 51.3 °F 30.2 in West 2.9 mph 4 mph 62% 0 in 0 W/m2
23:19 64.6 °F 51.3 °F 30.2 in West 2 mph 6 mph 62% 0 in 0 W/m2
23:24 64.4 °F 51.1 °F 30.2 in WSW 2.9 mph 4 mph 62% 0 in 0 W/m2
23:29 64.2 °F 51.4 °F 30.2 in West 4 mph 7 mph 63% 0 in 0 W/m2
23:34 64 °F 51.3 °F 30.2 in West 2 mph 3 mph 63% 0 in 0 W/m2
23:39 63.9 °F 51.4 °F 30.2 in West 2 mph 3 mph 64% 0 in 0 W/m2
23:44 63.5 °F 51.1 °F 30.2 in WNW 2 mph 2 mph 64% 0 in 0 W/m2
23:49 63.1 °F 51.3 °F 30.2 in West 0.9 mph 3 mph 65% 0 in 0 W/m2
23:54 62.8 °F 51.3 °F 30.2 in WSW 2.9 mph 4 mph 66% 0 in 0 W/m2
23:59 62.6 °F 51.1 °F 30.2 in WSW 2 mph 4 mph 66% 0 in 0 W/m2
Juneau County Weather
Compliments of Weather Underground - 4 mb